createdAt,value
2019-05-07T00:01:13.802Z,7.87
2019-05-07T00:03:42.981Z,5.80
2019-05-07T00:06:12.442Z,8.13
2019-05-07T00:08:44.596Z,7.67
2019-05-07T00:11:12.792Z,8.90
2019-05-07T00:13:44.349Z,4.93
2019-05-07T00:16:13.030Z,8.67
2019-05-07T00:18:42.901Z,7.53
2019-05-07T00:21:12.752Z,7.40
2019-05-07T00:23:43.219Z,6.27
2019-05-07T00:26:13.325Z,8.23
2019-05-07T00:28:43.430Z,9.33
2019-05-07T00:31:13.263Z,10.90
2019-05-07T00:33:43.221Z,8.30
2019-05-07T00:36:28.437Z,7.90
2019-05-07T00:39:06.094Z,9.70
2019-05-07T00:41:42.685Z,8.53
2019-05-07T00:44:13.566Z,9.03
2019-05-07T00:46:42.922Z,6.47
2019-05-07T00:49:12.674Z,6.13
2019-05-07T00:51:42.517Z,8.27
2019-05-07T00:54:12.350Z,5.30
2019-05-07T00:56:42.921Z,10.97
2019-05-07T00:59:13.099Z,8.23
2019-05-07T01:01:43.200Z,11.23
2019-05-07T01:04:12.695Z,9.77
2019-05-07T01:06:42.395Z,9.07
2019-05-07T01:09:12.412Z,6.67
2019-05-07T01:11:42.907Z,8.47
2019-05-07T01:14:12.475Z,5.30
2019-05-07T01:16:42.224Z,8.80
2019-05-07T01:19:12.564Z,9.07
2019-05-07T01:21:43.259Z,6.97
2019-05-07T01:24:12.667Z,8.40
2019-05-07T01:26:42.556Z,7.07
2019-05-07T01:29:12.852Z,10.30
2019-05-07T01:31:57.745Z,9.70
2019-05-07T01:34:44.043Z,11.30
2019-05-07T01:37:13.242Z,13.20
2019-05-07T01:39:42.414Z,7.10
2019-05-07T01:42:12.737Z,8.17
2019-05-07T01:44:43.440Z,9.93
2019-05-07T01:47:13.151Z,7.73
2019-05-07T01:49:42.518Z,12.80
2019-05-07T01:52:13.362Z,11.90
2019-05-07T01:54:42.730Z,9.20
2019-05-07T01:57:12.298Z,7.07
2019-05-07T01:59:42.650Z,7.47
2019-05-07T02:02:27.241Z,10.47
2019-05-07T02:05:05.386Z,6.80
2019-05-07T02:07:42.846Z,12.70
2019-05-07T02:10:32.140Z,9.60
2019-05-07T02:13:02.320Z,7.90
2019-05-07T02:15:32.277Z,8.77
2019-05-07T02:18:02.077Z,6.87
2019-05-07T02:20:32.131Z,6.97
2019-05-07T02:23:02.769Z,8.10
2019-05-07T02:25:32.915Z,7.97
2019-05-07T02:28:02.403Z,7.93
2019-05-07T02:30:34.915Z,8.23
2019-05-07T02:33:03.710Z,10.63
2019-05-07T02:35:33.542Z,11.10
2019-05-07T02:38:17.413Z,8.33
2019-05-07T02:40:57.025Z,12.37
2019-05-07T02:43:26.203Z,9.80
2019-05-07T02:46:26.479Z,12.30
2019-05-07T02:48:54.118Z,7.33
2019-05-07T02:51:28.935Z,8.80
2019-05-07T02:54:25.291Z,9.73
2019-05-07T02:56:54.465Z,6.50
2019-05-07T02:59:23.781Z,6.53
2019-05-07T03:01:53.755Z,8.97
2019-05-07T03:04:25.080Z,9.27
2019-05-07T03:06:54.619Z,5.37
2019-05-07T03:09:23.775Z,5.70
2019-05-07T03:11:53.190Z,9.73
2019-05-07T03:14:23.427Z,9.97
2019-05-07T03:16:53.773Z,10.10
2019-05-07T03:19:24.159Z,8.47
2019-05-07T03:21:54.838Z,6.43
2019-05-07T03:24:53.213Z,5.27
2019-05-07T03:27:23.455Z,7.13
2019-05-07T03:30:16.049Z,6.30
2019-05-07T03:32:47.992Z,6.90
2019-05-07T03:35:39.479Z,6.47
2019-05-07T03:38:08.678Z,3.67
2019-05-07T03:40:37.842Z,7.63
2019-05-07T03:43:07.722Z,8.00
2019-05-07T03:45:54.002Z,6.40
2019-05-07T03:48:24.234Z,8.27
2019-05-07T03:50:53.649Z,6.57
2019-05-07T03:53:23.444Z,9.53
2019-05-07T03:55:53.731Z,9.03
2019-05-07T03:58:23.947Z,7.60
2019-05-07T04:00:53.849Z,10.13
2019-05-07T04:03:24.763Z,8.77
2019-05-07T04:05:54.116Z,5.67
2019-05-07T04:08:23.916Z,6.73
2019-05-07T04:10:53.945Z,12.93
2019-05-07T04:13:24.383Z,7.63
2019-05-07T04:15:53.878Z,6.40
2019-05-07T04:18:43.695Z,10.07
2019-05-07T04:21:14.016Z,5.90
2019-05-07T04:23:44.046Z,4.30
2019-05-07T04:26:33.857Z,11.13
2019-05-07T04:29:06.429Z,10.50
2019-05-07T04:31:43.024Z,7.70
2019-05-07T04:34:17.442Z,8.80
2019-05-07T04:36:48.761Z,4.97
2019-05-07T04:39:18.026Z,7.27
2019-05-07T04:41:47.194Z,7.03
2019-05-07T04:44:16.428Z,7.93
2019-05-07T04:46:48.110Z,7.43
2019-05-07T04:49:16.506Z,8.27
2019-05-07T04:52:03.719Z,9.60
2019-05-07T04:54:32.905Z,6.53
2019-05-07T04:57:03.672Z,6.80
2019-05-07T04:59:33.342Z,8.37
2019-05-07T05:02:13.269Z,9.33
2019-05-07T05:04:43.691Z,5.70
2019-05-07T05:07:13.383Z,8.37
2019-05-07T05:09:42.835Z,7.43
2019-05-07T05:12:13.187Z,7.23
2019-05-07T05:14:43.492Z,7.03
2019-05-07T05:17:13.117Z,12.60
2019-05-07T05:19:43.891Z,11.33
2019-05-07T05:22:32.323Z,7.40
2019-05-07T05:25:17.841Z,9.07
2019-05-07T05:27:47.017Z,8.80
2019-05-07T05:30:21.946Z,8.13
2019-05-07T05:32:52.030Z,12.07
2019-05-07T05:35:22.239Z,9.40
2019-05-07T05:37:52.087Z,11.17
2019-05-07T05:40:22.658Z,5.23
2019-05-07T05:43:01.947Z,8.93
2019-05-07T05:45:33.890Z,4.93
2019-05-07T05:48:07.890Z,6.07
2019-05-07T05:50:42.152Z,7.50
2019-05-07T05:53:22.642Z,8.37
2019-05-07T05:55:52.904Z,6.60
2019-05-07T05:58:39.522Z,6.93
2019-05-07T06:01:27.662Z,6.87
2019-05-07T06:04:14.486Z,10.87
2019-05-07T06:07:08.020Z,6.07
2019-05-07T06:09:34.860Z,8.83
2019-05-07T06:12:28.780Z,7.73
2019-05-07T06:15:05.726Z,4.53
2019-05-07T06:18:17.666Z,5.63
2019-05-07T06:20:43.398Z,5.50
2019-05-07T06:23:23.190Z,10.43
2019-05-07T06:25:52.550Z,10.73
2019-05-07T06:28:22.386Z,6.50
2019-05-07T06:30:52.699Z,7.87
2019-05-07T06:33:22.949Z,7.10
2019-05-07T06:35:52.358Z,6.60
2019-05-07T06:38:22.326Z,8.70
2019-05-07T06:41:15.218Z,8.10
2019-05-07T06:43:56.134Z,8.53
2019-05-07T06:46:25.329Z,6.03
2019-05-07T06:48:54.506Z,10.37
2019-05-07T06:51:23.674Z,6.00
2019-05-07T06:53:52.861Z,6.67
2019-05-07T06:56:23.059Z,8.97
2019-05-07T06:59:12.966Z,5.83
2019-05-07T07:02:07.253Z,4.03
2019-05-07T07:04:49.492Z,10.37
2019-05-07T07:07:37.059Z,6.53
2019-05-07T07:10:25.358Z,6.17
2019-05-07T07:12:54.537Z,6.27
2019-05-07T07:15:23.806Z,7.23
2019-05-07T07:17:52.966Z,5.23
2019-05-07T07:20:22.165Z,7.37
2019-05-07T07:22:52.079Z,9.40
2019-05-07T07:25:22.910Z,7.97
2019-05-07T07:27:52.306Z,6.60
2019-05-07T07:30:34.240Z,8.33
2019-05-07T07:33:05.071Z,8.97
2019-05-07T07:35:35.778Z,4.00
2019-05-07T07:38:23.926Z,6.10
2019-05-07T07:41:12.783Z,4.83
2019-05-07T07:43:42.072Z,5.23
2019-05-07T07:46:12.886Z,4.70
2019-05-07T07:48:43.481Z,4.77
2019-05-07T07:51:13.874Z,3.47
2019-05-07T07:53:43.415Z,8.17
2019-05-07T07:56:45.356Z,5.67
2019-05-07T07:59:12.639Z,3.57
2019-05-07T08:01:52.338Z,5.63
2019-05-07T08:04:22.864Z,2.87
2019-05-07T08:07:03.089Z,4.57
2019-05-07T08:09:33.198Z,3.77
2019-05-07T08:12:02.761Z,5.97
2019-05-07T08:14:32.541Z,4.57
2019-05-07T08:17:03.360Z,5.70
2019-05-07T08:19:32.883Z,4.43
2019-05-07T08:22:02.966Z,6.77
2019-05-07T08:24:32.436Z,3.00
2019-05-07T08:27:02.314Z,5.43
2019-05-07T08:29:32.712Z,6.00
2019-05-07T08:32:24.654Z,2.53
2019-05-07T08:35:18.734Z,5.17
2019-05-07T08:37:47.914Z,8.63
2019-05-07T08:40:21.930Z,5.87
2019-05-07T08:42:52.422Z,4.83
2019-05-07T08:45:39.682Z,5.93
2019-05-07T08:48:15.706Z,3.83
2019-05-07T08:50:46.640Z,5.17
2019-05-07T08:53:18.963Z,5.57
2019-05-07T08:55:48.262Z,2.67
2019-05-07T08:58:17.478Z,3.63
2019-05-07T09:00:46.650Z,6.53
2019-05-07T09:03:22.337Z,6.57
2019-05-07T09:05:58.761Z,9.37
2019-05-07T09:08:29.202Z,3.93
2019-05-07T09:10:58.299Z,6.87
2019-05-07T09:13:32.958Z,4.27
2019-05-07T09:16:02.403Z,5.03
2019-05-07T09:18:32.286Z,5.50
2019-05-07T09:21:02.183Z,4.37
2019-05-07T09:23:32.059Z,2.17
2019-05-07T09:26:02.731Z,3.33
2019-05-07T09:28:52.361Z,6.40
2019-05-07T09:31:29.149Z,5.50
2019-05-07T09:33:58.283Z,3.40
2019-05-07T09:36:35.826Z,2.80
2019-05-07T09:39:06.313Z,2.57
2019-05-07T09:41:35.487Z,3.23
2019-05-07T09:44:04.658Z,4.83
2019-05-07T09:46:33.850Z,2.40
2019-05-07T09:49:03.229Z,2.37
2019-05-07T09:51:32.546Z,2.90
2019-05-07T09:54:02.570Z,4.17
2019-05-07T09:56:33.290Z,5.13
2019-05-07T09:59:02.595Z,2.93
2019-05-07T10:01:34.583Z,2.90
2019-05-07T10:04:03.780Z,3.30
2019-05-07T10:06:32.970Z,2.87
2019-05-07T10:09:02.877Z,5.23
2019-05-07T10:11:42.630Z,5.33
2019-05-07T10:14:12.583Z,3.60
2019-05-07T10:17:03.951Z,3.03
2019-05-07T10:19:33.174Z,2.07
2019-05-07T10:22:02.434Z,3.90
2019-05-07T10:24:31.630Z,3.73
2019-05-07T10:27:02.241Z,1.90
2019-05-07T10:29:32.248Z,8.23
2019-05-07T10:32:02.227Z,1.43
2019-05-07T10:34:31.757Z,1.80
2019-05-07T10:37:02.718Z,4.17
2019-05-07T10:39:32.547Z,3.70
2019-05-07T10:42:01.919Z,4.90
2019-05-07T10:44:36.706Z,4.60
2019-05-07T10:47:23.598Z,2.80
2019-05-07T10:50:11.964Z,5.37
2019-05-07T10:52:42.494Z,3.03
2019-05-07T10:55:12.122Z,5.20
2019-05-07T10:57:42.215Z,5.03
2019-05-07T11:00:12.418Z,4.03
2019-05-07T11:02:42.559Z,6.00
2019-05-07T11:05:12.953Z,4.90
2019-05-07T11:07:42.377Z,3.67
2019-05-07T11:10:12.402Z,3.70
2019-05-07T11:12:42.443Z,3.70
2019-05-07T11:15:12.591Z,5.80
2019-05-07T11:17:53.738Z,3.90
2019-05-07T11:20:22.925Z,3.10
2019-05-07T11:22:52.315Z,3.93
2019-05-07T11:25:22.532Z,3.07
2019-05-07T11:27:52.378Z,2.47
2019-05-07T11:30:22.807Z,3.17
2019-05-07T11:32:52.466Z,4.13
2019-05-07T11:35:23.008Z,8.23
2019-05-07T11:37:52.456Z,5.67
2019-05-07T11:40:22.920Z,5.13
2019-05-07T11:43:05.165Z,4.10
2019-05-07T11:45:41.616Z,2.40
2019-05-07T11:48:13.144Z,2.87
2019-05-07T11:51:01.508Z,2.70
2019-05-07T11:53:23.019Z,4.23
2019-05-07T11:55:52.421Z,5.97
2019-05-07T11:58:22.084Z,11.53
2019-05-07T12:01:04.185Z,3.20
2019-05-07T12:03:33.458Z,2.87
2019-05-07T12:06:02.646Z,5.53
2019-05-07T12:08:42.923Z,3.30
2019-05-07T12:11:02.644Z,5.00
2019-05-07T12:13:32.297Z,4.10
2019-05-07T12:16:02.908Z,3.93
2019-05-07T12:18:40.452Z,6.83
2019-05-07T12:21:19.963Z,4.63
2019-05-07T12:23:42.157Z,4.63
2019-05-07T12:26:17.618Z,6.27
2019-05-07T12:28:46.847Z,4.90
2019-05-07T12:31:43.986Z,4.77
2019-05-07T12:34:22.790Z,8.40
2019-05-07T12:36:52.431Z,4.03
2019-05-07T12:39:22.053Z,4.83
2019-05-07T12:41:52.445Z,2.30
2019-05-07T12:44:22.184Z,3.93
2019-05-07T12:46:52.498Z,5.93
2019-05-07T12:49:22.196Z,3.67
2019-05-07T12:52:12.560Z,6.13
2019-05-07T12:54:58.073Z,2.13
2019-05-07T12:57:27.258Z,3.90
2019-05-07T12:59:58.646Z,5.60
2019-05-07T13:02:40.873Z,3.70
2019-05-07T13:05:07.418Z,2.43
2019-05-07T13:08:01.501Z,2.67
2019-05-07T13:10:32.502Z,3.30
2019-05-07T13:13:02.194Z,3.27
2019-05-07T13:15:32.671Z,2.37
2019-05-07T13:18:02.818Z,5.23
2019-05-07T13:20:32.217Z,3.97
2019-05-07T13:23:01.342Z,2.37
2019-05-07T13:25:32.270Z,3.63
2019-05-07T13:28:02.625Z,3.07
2019-05-07T13:30:32.134Z,3.23
2019-05-07T13:33:02.001Z,2.33
2019-05-07T13:35:31.326Z,5.30
2019-05-07T13:38:21.185Z,3.97
2019-05-07T13:40:59.162Z,1.90
2019-05-07T13:43:33.089Z,2.43
2019-05-07T13:46:12.084Z,3.80
2019-05-07T13:48:44.085Z,3.37
2019-05-07T13:51:13.002Z,2.80
2019-05-07T13:53:42.782Z,1.83
2019-05-07T13:56:13.366Z,3.00
2019-05-07T13:58:44.721Z,2.40
2019-05-07T14:01:32.957Z,1.20
2019-05-07T14:04:04.093Z,2.47
2019-05-07T14:06:42.683Z,1.67
2019-05-07T14:09:23.917Z,3.40
2019-05-07T14:11:52.783Z,2.83
2019-05-07T14:14:22.487Z,3.87
2019-05-07T14:16:57.432Z,4.00
2019-05-07T14:19:32.574Z,2.30
2019-05-07T14:22:14.768Z,3.67
2019-05-07T14:24:32.841Z,3.23
2019-05-07T14:27:08.494Z,5.03
2019-05-07T14:29:38.786Z,3.13
2019-05-07T14:32:36.778Z,6.20
2019-05-07T14:35:25.171Z,2.20
2019-05-07T14:38:04.794Z,2.67
2019-05-07T14:40:35.078Z,3.07
2019-05-07T14:43:13.114Z,3.20
2019-05-07T14:45:43.830Z,1.70
2019-05-07T14:48:13.037Z,2.17
2019-05-07T14:50:45.031Z,2.53
2019-05-07T14:53:14.394Z,3.40
2019-05-07T14:55:43.579Z,2.70
2019-05-07T14:58:15.910Z,2.93
2019-05-07T15:00:45.038Z,2.57
2019-05-07T15:03:14.209Z,2.60
2019-05-07T15:05:46.586Z,2.37
2019-05-07T15:08:15.795Z,4.37
2019-05-07T15:10:44.966Z,1.87
2019-05-07T15:13:15.950Z,4.30
2019-05-07T15:15:46.726Z,3.87
2019-05-07T15:18:26.495Z,3.70
2019-05-07T15:20:55.661Z,3.47
2019-05-07T15:23:31.590Z,2.37
2019-05-07T15:26:04.562Z,3.87
2019-05-07T15:28:41.761Z,3.20
2019-05-07T15:31:20.438Z,2.50
2019-05-07T15:33:55.144Z,3.63
2019-05-07T15:36:23.961Z,3.93
2019-05-07T15:38:53.223Z,1.97
2019-05-07T15:41:22.843Z,2.13
2019-05-07T15:43:53.486Z,2.93
2019-05-07T15:46:22.774Z,3.53
2019-05-07T15:48:54.909Z,1.93
2019-05-07T15:51:27.164Z,2.07
2019-05-07T15:53:57.774Z,5.23
2019-05-07T15:56:26.960Z,1.70
2019-05-07T15:58:57.911Z,3.17
2019-05-07T16:01:30.803Z,2.97
2019-05-07T16:04:02.568Z,3.97
2019-05-07T16:06:32.408Z,2.17
2019-05-07T16:09:04.637Z,1.60
2019-05-07T16:11:35.032Z,4.27
2019-05-07T16:14:26.767Z,1.87
2019-05-07T16:17:03.021Z,3.03
2019-05-07T16:19:33.183Z,1.53
2019-05-07T16:22:08.589Z,2.53
2019-05-07T16:24:37.737Z,3.57
2019-05-07T16:27:08.275Z,4.63
2019-05-07T16:29:41.941Z,1.53
2019-05-07T16:32:10.943Z,3.10
2019-05-07T16:34:40.196Z,2.90
2019-05-07T16:37:09.408Z,1.60
2019-05-07T16:39:38.541Z,2.70
2019-05-07T16:42:07.722Z,3.00
2019-05-07T16:44:36.902Z,3.43
2019-05-07T16:47:06.085Z,0.73
2019-05-07T16:49:35.231Z,2.33
2019-05-07T16:52:04.410Z,3.10
2019-05-07T16:54:33.594Z,3.00
2019-05-07T16:57:28.871Z,2.30
2019-05-07T16:59:58.177Z,3.33
2019-05-07T17:02:32.151Z,2.77
2019-05-07T17:05:12.127Z,3.33
2019-05-07T17:07:54.914Z,5.20
2019-05-07T17:10:24.133Z,4.90
2019-05-07T17:12:53.301Z,1.37
2019-05-07T17:15:24.034Z,3.37
2019-05-07T17:17:59.298Z,4.77
2019-05-07T17:20:30.052Z,5.93
2019-05-07T17:22:59.222Z,1.83
2019-05-07T17:25:37.637Z,3.10
2019-05-07T17:28:07.133Z,3.90
2019-05-07T17:30:37.701Z,2.60
2019-05-07T17:33:12.622Z,4.60
2019-05-07T17:35:42.336Z,3.07
2019-05-07T17:38:12.866Z,4.43
2019-05-07T17:40:42.482Z,2.10
2019-05-07T17:43:12.315Z,3.27
2019-05-07T17:45:42.990Z,4.67
2019-05-07T17:48:12.449Z,5.27
2019-05-07T17:51:06.700Z,2.70
2019-05-07T17:53:35.870Z,4.27
2019-05-07T17:56:05.060Z,2.70
2019-05-07T17:58:34.217Z,2.63
2019-05-07T18:01:05.374Z,4.60
2019-05-07T18:03:37.394Z,1.53
2019-05-07T18:06:06.934Z,2.73
2019-05-07T18:08:36.114Z,3.03
2019-05-07T18:11:16.727Z,3.40
2019-05-07T18:13:36.176Z,3.13
2019-05-07T18:16:12.120Z,1.73
2019-05-07T18:18:43.240Z,2.20
2019-05-07T18:21:12.691Z,5.60
2019-05-07T18:23:42.001Z,4.13
2019-05-07T18:26:26.934Z,3.27
2019-05-07T18:28:46.478Z,4.23
2019-05-07T18:31:15.960Z,2.67
2019-05-07T18:33:59.836Z,2.93
2019-05-07T18:36:28.693Z,4.03
2019-05-07T18:38:57.793Z,4.57
2019-05-07T18:41:26.915Z,2.93
2019-05-07T18:44:09.074Z,2.50
2019-05-07T18:46:30.320Z,2.27
2019-05-07T18:48:59.482Z,4.30
2019-05-07T18:51:34.006Z,4.93
2019-05-07T18:54:06.597Z,1.93
2019-05-07T18:56:35.422Z,4.73
2019-05-07T18:59:04.654Z,4.53
2019-05-07T19:01:35.277Z,2.40
2019-05-07T19:04:06.159Z,4.23
2019-05-07T19:06:35.370Z,2.63
2019-05-07T19:09:09.618Z,4.03
2019-05-07T19:11:42.701Z,2.50
2019-05-07T19:14:19.475Z,3.53
2019-05-07T19:16:52.409Z,4.70
2019-05-07T19:19:22.179Z,3.17
2019-05-07T19:21:53.044Z,3.03
2019-05-07T19:24:25.839Z,3.03
2019-05-07T19:26:53.201Z,2.37
2019-05-07T19:29:24.138Z,2.23
2019-05-07T19:31:53.324Z,2.93
2019-05-07T19:34:26.191Z,4.73
2019-05-07T19:37:02.430Z,4.57
2019-05-07T19:39:32.317Z,2.10
2019-05-07T19:42:02.593Z,3.90
2019-05-07T19:44:35.769Z,5.07
2019-05-07T19:47:09.196Z,4.80
2019-05-07T19:49:38.394Z,5.40
2019-05-07T19:52:12.422Z,2.60
2019-05-07T19:54:57.679Z,4.10
2019-05-07T19:57:23.003Z,3.97
2019-05-07T19:59:52.253Z,2.73
2019-05-07T20:02:23.806Z,3.57
2019-05-07T20:04:54.811Z,2.50
2019-05-07T20:07:23.974Z,1.87
2019-05-07T20:09:53.178Z,3.10
2019-05-07T20:12:22.409Z,3.80
2019-05-07T20:14:51.783Z,4.30
2019-05-07T20:17:22.215Z,3.27
2019-05-07T20:19:52.711Z,3.30
2019-05-07T20:22:22.215Z,3.57
2019-05-07T20:24:52.726Z,2.03
2019-05-07T20:27:23.340Z,2.90
2019-05-07T20:29:52.499Z,2.93
2019-05-07T20:32:22.565Z,4.00
2019-05-07T20:34:52.115Z,5.20
2019-05-07T20:37:21.981Z,2.07
2019-05-07T20:39:52.410Z,3.17
2019-05-07T20:42:23.116Z,3.30
2019-05-07T20:44:52.508Z,4.83
2019-05-07T20:47:22.089Z,2.77
2019-05-07T20:49:51.399Z,2.73
2019-05-07T20:52:22.785Z,6.17
2019-05-07T20:55:26.579Z,3.03
2019-05-07T20:57:44.561Z,3.13
2019-05-07T21:00:18.811Z,5.33
2019-05-07T21:02:52.431Z,4.23
2019-05-07T21:05:22.757Z,4.73
2019-05-07T21:07:52.448Z,5.43
2019-05-07T21:10:22.184Z,4.03
2019-05-07T21:12:51.815Z,4.20
2019-05-07T21:15:22.759Z,3.60
2019-05-07T21:17:52.613Z,3.40
2019-05-07T21:20:22.826Z,4.17
2019-05-07T21:22:52.077Z,2.80
2019-05-07T21:25:22.669Z,3.37
2019-05-07T21:27:53.135Z,3.87
2019-05-07T21:30:22.573Z,3.10
2019-05-07T21:32:51.799Z,5.67
2019-05-07T21:35:25.457Z,5.10
2019-05-07T21:37:54.586Z,4.47
2019-05-07T21:40:23.808Z,3.40
2019-05-07T21:42:53.014Z,3.83
2019-05-07T21:45:23.867Z,4.53
2019-05-07T21:47:55.082Z,4.27
2019-05-07T21:50:24.782Z,3.63
2019-05-07T21:52:58.985Z,4.50
2019-05-07T21:55:34.306Z,3.03
2019-05-07T21:58:27.002Z,5.40
2019-05-07T22:01:18.672Z,2.77
2019-05-07T22:03:52.395Z,3.50
2019-05-07T22:06:22.789Z,4.57
2019-05-07T22:08:54.432Z,6.57
2019-05-07T22:11:23.113Z,4.03
2019-05-07T22:13:54.735Z,7.20
2019-05-07T22:16:23.153Z,4.37
2019-05-07T22:18:52.337Z,5.33
2019-05-07T22:21:21.502Z,3.43
2019-05-07T22:23:52.221Z,5.83
2019-05-07T22:26:25.580Z,2.93
2019-05-07T22:28:54.153Z,4.00
2019-05-07T22:31:43.896Z,2.50
2019-05-07T22:34:24.600Z,2.80
2019-05-07T22:36:54.989Z,4.40
2019-05-07T22:39:24.549Z,3.37
2019-05-07T22:41:53.727Z,3.23
2019-05-07T22:44:26.120Z,2.80
2019-05-07T22:46:53.906Z,6.53
2019-05-07T22:49:23.105Z,4.50
2019-05-07T22:51:54.757Z,4.30
2019-05-07T22:54:23.111Z,6.47
2019-05-07T22:57:17.310Z,4.17
2019-05-07T22:59:46.530Z,4.07
2019-05-07T23:02:15.694Z,3.10
2019-05-07T23:04:44.875Z,5.50
2019-05-07T23:07:14.070Z,4.20
2019-05-07T23:09:44.884Z,2.43
2019-05-07T23:12:14.075Z,3.50
2019-05-07T23:14:43.242Z,3.57
2019-05-07T23:17:12.635Z,3.67
2019-05-07T23:19:42.037Z,3.47
2019-05-07T23:22:13.441Z,3.77
2019-05-07T23:24:42.634Z,7.87
2019-05-07T23:27:12.149Z,3.30
2019-05-07T23:29:43.925Z,3.83
2019-05-07T23:32:13.322Z,4.17
2019-05-07T23:34:42.489Z,3.87
2019-05-07T23:37:11.798Z,3.77
2019-05-07T23:39:42.846Z,3.43
2019-05-07T23:42:18.629Z,3.80
2019-05-07T23:44:47.828Z,5.43
2019-05-07T23:47:17.033Z,3.47
2019-05-07T23:49:46.133Z,5.83
2019-05-07T23:52:15.245Z,4.73
2019-05-07T23:54:44.418Z,6.07
2019-05-07T23:57:15.410Z,5.90
2019-05-07T23:59:44.402Z,7.73
